Time;durP1;ratioP1;P1;durP2;ratioP2;P2;SDS_P1;SDS_P2;PMS_P1;PMS_P2;Temp;Humidity;BMP_temperature;BMP_pressure;BME280_temperature;BME280_humidity;BME280_pressure;Samples;Min_cycle;Max_cycle;Signal;HPM_P1;HPM_P2
2023/08/27 00:05:13;;;;;;;7.3;2.9;;;;;;;17.96;95.93;;;;;
2023/08/27 00:15:12;;;;;;;5.4;1.7;;;;;;;17.89;96.15;;;;;
2023/08/27 00:25:12;;;;;;;5.4;1.7;;;;;;;18.21;96.49;;;;;
2023/08/27 00:35:13;;;;;;;5.4;1.7;;;;;;;18.4;95.8;;;;;
2023/08/27 00:46:16;;;;;;;3.7;1.8;;;;;;;18.58;94.8;;;;;
2023/08/27 00:57:12;;;;;;;3.7;1.8;;;;;;;18.69;95.32;;;;;
2023/08/27 01:08:12;;;;;;;3.7;1.8;;;;;;;18.53;95.27;;;;;
2023/08/27 01:18:13;;;;;;;5.1;2.3;;;;;;;18.56;95.08;;;;;
2023/08/27 01:29:13;;;;;;;5.1;2.3;;;;;;;18.55;95.16;;;;;
2023/08/27 01:39:18;;;;;;;5.1;2.3;;;;;;;18.54;95.35;;;;;
2023/08/27 01:49:21;;;;;;;3.3;1.3;;;;;;;18.48;95.46;;;;;
2023/08/27 01:59:21;;;;;;;3.3;1.3;;;;;;;18.48;95.37;;;;;
2023/08/27 02:09:45;;;;;;;3.3;1.3;;;;;;;18.55;95.18;;;;;
2023/08/27 02:19:51;;;;;;;3.3;1.6;;;;;;;18.57;95.21;;;;;
2023/08/27 02:29:51;;;;;;;3.3;1.6;;;;;;;18.65;95.38;;;;;
2023/08/27 02:39:51;;;;;;;3.3;1.6;;;;;;;18.74;95.53;;;;;
2023/08/27 02:49:51;;;;;;;4.7;2.4;;;;;;;18.8;95.37;;;;;
2023/08/27 03:00:51;;;;;;;4.7;2.4;;;;;;;18.84;95.03;;;;;
2023/08/27 03:11:51;;;;;;;4.7;2.4;;;;;;;18.89;95.03;;;;;
2023/08/27 03:22:01;;;;;;;5.4;3;;;;;;;18.93;95.11;;;;;
2023/08/27 03:32:41;;;;;;;5.4;3;;;;;;;18.95;95.04;;;;;
2023/08/27 03:43:02;;;;;;;5.4;3;;;;;;;19.03;95.39;;;;;
2023/08/27 03:53:02;;;;;;;7.4;2.7;;;;;;;19.01;95.34;;;;;
2023/08/27 04:03:03;;;;;;;7.4;2.7;;;;;;;18.79;94.94;;;;;
2023/08/27 04:13:02;;;;;;;7.4;2.7;;;;;;;18.9;95.43;;;;;
2023/08/27 04:23:24;;;;;;;5.8;2.9;;;;;;;18.85;95.24;;;;;
2023/08/27 04:33:25;;;;;;;5.8;2.9;;;;;;;18.59;94.39;;;;;
2023/08/27 04:44:26;;;;;;;6.9;3.1;;;;;;;18.73;95.16;;;;;
2023/08/27 04:54:25;;;;;;;6.9;3.1;;;;;;;18.69;95.43;;;;;
2023/08/27 05:04:37;;;;;;;6.9;3.1;;;;;;;18.83;95.72;;;;;
2023/08/27 05:14:37;;;;;;;5.2;2.9;;;;;;;19.07;95.74;;;;;
2023/08/27 05:24:38;;;;;;;5.2;2.9;;;;;;;19.1;95.39;;;;;
2023/08/27 05:34:56;;;;;;;5.2;2.9;;;;;;;19.11;95.27;;;;;
2023/08/27 05:46:02;;;;;;;5.7;2.7;;;;;;;19.35;95.24;;;;;
2023/08/27 05:56:57;;;;;;;5.7;2.7;;;;;;;19.68;93.69;;;;;
2023/08/27 06:06:57;;;;;;;5.7;2.7;;;;;;;19.82;93.7;;;;;
2023/08/27 06:17:01;;;;;;;4.9;2.6;;;;;;;20.52;94.7;;;;;
2023/08/27 06:27:57;;;;;;;4.9;2.6;;;;;;;20.81;92.97;;;;;
2023/08/27 06:38:15;;;;;;;4.9;2.6;;;;;;;20.87;90.67;;;;;
2023/08/27 06:48:15;;;;;;;6.3;2.8;;;;;;;21.38;90.72;;;;;
2023/08/27 06:59:15;;;;;;;6.3;2.8;;;;;;;21.32;86.36;;;;;
2023/08/27 07:09:25;;;;;;;6.3;2.8;;;;;;;21.68;87.01;;;;;
2023/08/27 07:19:30;;;;;;;4.7;2.5;;;;;;;22.03;84.75;;;;;
2023/08/27 07:30:29;;;;;;;4.7;2.5;;;;;;;22.63;84.29;;;;;
2023/08/27 07:41:29;;;;;;;4.7;2.5;;;;;;;23.14;80.23;;;;;
2023/08/27 07:52:29;;;;;;;5.1;2.5;;;;;;;23.15;80.5;;;;;
2023/08/27 08:02:29;;;;;;;5.1;2.5;;;;;;;23.15;80.9;;;;;
2023/08/27 08:12:29;;;;;;;5.1;2.5;;;;;;;22.98;79.8;;;;;
2023/08/27 08:22:30;;;;;;;5.8;2.9;;;;;;;23.32;81.16;;;;;
2023/08/27 08:32:36;;;;;;;5.8;2.9;;;;;;;23.95;77.69;;;;;
2023/08/27 08:42:36;;;;;;;5.8;2.9;;;;;;;24.13;76.53;;;;;
2023/08/27 08:53:36;;;;;;;6.4;3.9;;;;;;;24.78;74.4;;;;;
2023/08/27 09:03:36;;;;;;;6.4;3.9;;;;;;;24.86;74.53;;;;;
2023/08/27 09:13:36;;;;;;;6.4;3.9;;;;;;;25.14;74.91;;;;;
2023/08/27 09:23:37;;;;;;;7.7;5.8;;;;;;;25.38;73.37;;;;;
2023/08/27 09:33:46;;;;;;;7.7;5.8;;;;;;;25.38;73.94;;;;;
2023/08/27 09:44:44;;;;;;;6;4.1;;;;;;;25.05;74.31;;;;;
2023/08/27 09:55:44;;;;;;;6;4.1;;;;;;;25.55;72.87;;;;;
2023/08/27 10:06:14;;;;;;;6;4.1;;;;;;;25.51;73.16;;;;;
2023/08/27 10:16:16;;;;;;;6.5;4.7;;;;;;;25.81;70.34;;;;;
2023/08/27 10:27:14;;;;;;;6.5;4.7;;;;;;;25.8;71.27;;;;;
2023/08/27 10:37:14;;;;;;;6.5;4.7;;;;;;;25.62;71.56;;;;;
2023/08/27 10:47:14;;;;;;;8.2;5.9;;;;;;;26.13;71.23;;;;;
2023/08/27 10:58:15;;;;;;;8.2;5.9;;;;;;;26.43;69.21;;;;;
2023/08/27 11:08:14;;;;;;;8.2;5.9;;;;;;;26.54;70.08;;;;;
2023/08/27 11:18:15;;;;;;;8.2;6;;;;;;;26.58;69.27;;;;;
2023/08/27 11:29:14;;;;;;;8.2;6;;;;;;;27.22;68.05;;;;;
2023/08/27 11:39:14;;;;;;;8.2;6;;;;;;;27.43;67.65;;;;;
2023/08/27 11:49:15;;;;;;;8.7;6.6;;;;;;;27.32;66.25;;;;;
2023/08/27 12:00:14;;;;;;;8.7;6.6;;;;;;;27.72;66.28;;;;;
2023/08/27 12:10:15;;;;;;;8.7;6.6;;;;;;;27.68;65.45;;;;;
2023/08/27 12:20:16;;;;;;;7.4;5.6;;;;;;;27.36;66.79;;;;;
2023/08/27 12:30:14;;;;;;;7.4;5.6;;;;;;;27.49;66.31;;;;;
2023/08/27 12:41:14;;;;;;;7.4;5.6;;;;;;;27.55;66.84;;;;;
2023/08/27 12:51:14;;;;;;;8.5;6.3;;;;;;;27.65;67.36;;;;;
2023/08/27 13:01:15;;;;;;;8.5;6.3;;;;;;;27.73;67.32;;;;;
2023/08/27 13:12:14;;;;;;;8.5;6.3;;;;;;;28.07;66.27;;;;;
2023/08/27 13:22:14;;;;;;;7.8;5.9;;;;;;;27.44;67.88;;;;;
2023/08/27 13:32:15;;;;;;;7.8;5.9;;;;;;;28.27;66.23;;;;;
2023/08/27 13:43:14;;;;;;;7.8;5.9;;;;;;;28;66.64;;;;;
2023/08/27 13:53:14;;;;;;;8;6;;;;;;;28.41;66.09;;;;;
2023/08/27 14:04:15;;;;;;;8;6;;;;;;;28.54;65.23;;;;;
2023/08/27 14:15:14;;;;;;;9.7;6.3;;;;;;;28.99;63.98;;;;;
2023/08/27 14:25:14;;;;;;;9.7;6.3;;;;;;;28.63;65.06;;;;;
2023/08/27 14:36:14;;;;;;;9.7;6.3;;;;;;;29;64.85;;;;;
2023/08/27 14:46:23;;;;;;;9.4;6.6;;;;;;;29.17;63.92;;;;;
2023/08/27 14:57:14;;;;;;;9.4;6.6;;;;;;;29.3;63.13;;;;;
2023/08/27 15:07:14;;;;;;;9.4;6.6;;;;;;;29.81;61.9;;;;;
2023/08/27 15:17:15;;;;;;;10.3;7.4;;;;;;;29.94;61.94;;;;;
2023/08/27 15:28:14;;;;;;;10.3;7.4;;;;;;;31.32;59.1;;;;;
2023/08/27 15:38:14;;;;;;;10.3;7.4;;;;;;;30.97;58.76;;;;;
2023/08/27 15:48:15;;;;;;;10.5;7.3;;;;;;;30.94;59.17;;;;;
2023/08/27 15:59:15;;;;;;;10.5;7.3;;;;;;;29.8;60.86;;;;;
2023/08/27 16:09:15;;;;;;;10.5;7.3;;;;;;;29.49;62.14;;;;;
2023/08/27 16:19:15;;;;;;;12.7;9;;;;;;;29.1;63.82;;;;;
2023/08/27 16:29:15;;;;;;;12.7;9;;;;;;;28.02;66.55;;;;;
2023/08/27 16:39:15;;;;;;;12.7;9;;;;;;;26.95;69.82;;;;;
2023/08/27 16:50:15;;;;;;;14.5;11.2;;;;;;;26.23;72.07;;;;;
2023/08/27 17:01:31;;;;;;;14.5;11.2;;;;;;;25.91;73.06;;;;;
2023/08/27 17:12:15;;;;;;;14.5;11.2;;;;;;;25.45;74.85;;;;;
2023/08/27 17:22:15;;;;;;;14;11.6;;;;;;;25.14;74.98;;;;;
2023/08/27 17:33:15;;;;;;;14;11.6;;;;;;;24.65;76.12;;;;;
2023/08/27 17:43:15;;;;;;;14;11.6;;;;;;;24.25;77.93;;;;;
2023/08/27 17:54:15;;;;;;;15.7;12;;;;;;;23.77;79.78;;;;;
2023/08/27 18:04:39;;;;;;;15.7;12;;;;;;;23.43;80.48;;;;;
2023/08/27 18:15:40;;;;;;;14.7;12.5;;;;;;;23.18;81.02;;;;;
2023/08/27 18:26:39;;;;;;;14.7;12.5;;;;;;;22.87;82.22;;;;;
2023/08/27 18:36:40;;;;;;;14.7;12.5;;;;;;;22.6;83.85;;;;;
2023/08/27 18:46:41;;;;;;;17.2;14.3;;;;;;;22.44;84.38;;;;;
2023/08/27 18:57:40;;;;;;;17.2;14.3;;;;;;;22.25;84.88;;;;;
2023/08/27 19:07:40;;;;;;;17.2;14.3;;;;;;;22.07;84.72;;;;;
2023/08/27 19:17:42;;;;;;;17.7;13.6;;;;;;;21.96;85.72;;;;;
2023/08/27 19:27:42;;;;;;;17.7;13.6;;;;;;;21.82;86.31;;;;;
2023/08/27 19:37:42;;;;;;;17.7;13.6;;;;;;;21.73;87.02;;;;;
2023/08/27 19:48:42;;;;;;;16.3;13.4;;;;;;;21.66;86.48;;;;;
2023/08/27 19:58:42;;;;;;;16.3;13.4;;;;;;;21.56;86.61;;;;;
2023/08/27 20:08:43;;;;;;;16.3;13.4;;;;;;;21.46;86.38;;;;;
2023/08/27 20:19:38;;;;;;;20.1;15.9;;;;;;;21.33;86.36;;;;;
2023/08/27 20:29:38;;;;;;;20.1;15.9;;;;;;;21.21;86.25;;;;;
2023/08/27 20:40:38;;;;;;;20.1;15.9;;;;;;;21.08;86.48;;;;;
2023/08/27 20:50:39;;;;;;;15.4;13.3;;;;;;;21.03;87.65;;;;;
2023/08/27 21:00:40;;;;;;;15.4;13.3;;;;;;;21.03;89.23;;;;;
2023/08/27 21:11:39;;;;;;;15.4;13.3;;;;;;;20.99;90.65;;;;;
2023/08/27 21:21:40;;;;;;;17.4;14.2;;;;;;;21.04;90.6;;;;;
2023/08/27 21:31:44;;;;;;;17.4;14.2;;;;;;;21.04;90.2;;;;;
2023/08/27 21:42:40;;;;;;;17.4;14.2;;;;;;;21.03;89.92;;;;;
2023/08/27 21:52:40;;;;;;;16.7;14;;;;;;;20.81;89.35;;;;;
2023/08/27 22:02:40;;;;;;;16.7;14;;;;;;;20.72;89.97;;;;;
2023/08/27 22:12:40;;;;;;;16.7;14;;;;;;;20.72;90.22;;;;;
2023/08/27 22:22:41;;;;;;;17.5;14.1;;;;;;;20.67;89.74;;;;;
2023/08/27 22:32:44;;;;;;;17.5;14.1;;;;;;;20.58;89.03;;;;;
2023/08/27 22:43:43;;;;;;;17.5;14.1;;;;;;;20.39;88.77;;;;;
2023/08/27 22:54:43;;;;;;;17;13.3;;;;;;;20.25;88.88;;;;;
2023/08/27 23:04:45;;;;;;;17;13.3;;;;;;;20.12;89.45;;;;;
2023/08/27 23:15:45;;;;;;;17.4;14.2;;;;;;;20.07;90.86;;;;;
2023/08/27 23:26:45;;;;;;;17.4;14.2;;;;;;;20.01;91.59;;;;;
2023/08/27 23:36:45;;;;;;;17.4;14.2;;;;;;;20.12;91.03;;;;;
2023/08/27 23:46:49;;;;;;;18.4;14.8;;;;;;;20.14;92.33;;;;;
2023/08/27 23:57:46;;;;;;;18.4;14.8;;;;;;;20.31;92.75;;;;;
